sensor_id;sensor_type;location;lat;lon;timestamp;pressure;altitude;pressure_sealevel;temperature;humidity
68399;BME280;56258;52.196;13.868;2023-02-28T00:00:51;102728.19;;;19.48;33.02
68399;BME280;56258;52.196;13.868;2023-02-28T00:03:18;102728.44;;;19.45;32.72
68399;BME280;56258;52.196;13.868;2023-02-28T00:05:45;102729.53;;;19.42;33.13
68399;BME280;56258;52.196;13.868;2023-02-28T00:08:11;102731.25;;;19.43;32.98
68399;BME280;56258;52.196;13.868;2023-02-28T00:10:39;102730.16;;;19.46;33.12
68399;BME280;56258;52.196;13.868;2023-02-28T00:13:06;102734.69;;;19.45;32.97
68399;BME280;56258;52.196;13.868;2023-02-28T00:15:33;102740.94;;;19.46;32.82
68399;BME280;56258;52.196;13.868;2023-02-28T00:18:01;102735.56;;;19.46;33.01
68399;BME280;56258;52.196;13.868;2023-02-28T00:20:28;102746.34;;;19.46;33.16
68399;BME280;56258;52.196;13.868;2023-02-28T00:22:54;102739.25;;;19.45;33.04
68399;BME280;56258;52.196;13.868;2023-02-28T00:25:45;102735.56;;;19.46;32.90
68399;BME280;56258;52.196;13.868;2023-02-28T00:28:36;102736.53;;;19.45;33.13
68399;BME280;56258;52.196;13.868;2023-02-28T00:31:27;102740.09;;;19.45;33.26
68399;BME280;56258;52.196;13.868;2023-02-28T00:34:18;102739.81;;;19.48;32.73
68399;BME280;56258;52.196;13.868;2023-02-28T00:37:10;102738.97;;;19.48;32.62
68399;BME280;56258;52.196;13.868;2023-02-28T00:40:02;102741.66;;;19.48;32.96
68399;BME280;56258;52.196;13.868;2023-02-28T00:42:55;102738.69;;;19.51;32.51
68399;BME280;56258;52.196;13.868;2023-02-28T00:45:46;102738.97;;;19.48;32.44
68399;BME280;56258;52.196;13.868;2023-02-28T00:48:37;102737.13;;;19.48;32.96
68399;BME280;56258;52.196;13.868;2023-02-28T00:51:28;102741.66;;;19.48;33.12
68399;BME280;56258;52.196;13.868;2023-02-28T00:54:19;102738.97;;;19.48;32.75
68399;BME280;56258;52.196;13.868;2023-02-28T04:50:54;102745.66;;;20.85;31.29
68399;BME280;56258;52.196;13.868;2023-02-28T04:53:21;102740.53;;;20.73;31.44
68399;BME280;56258;52.196;13.868;2023-02-28T04:55:47;102749.72;;;20.60;32.05
68399;BME280;56258;52.196;13.868;2023-02-28T04:58:14;102749.72;;;20.51;32.03
68399;BME280;56258;52.196;13.868;2023-02-28T05:00:41;102743.16;;;20.44;32.29
68399;BME280;56258;52.196;13.868;2023-02-28T05:03:07;102752.50;;;20.39;32.18
68399;BME280;56258;52.196;13.868;2023-02-28T05:05:34;102751.06;;;20.35;32.33
68399;BME280;56258;52.196;13.868;2023-02-28T05:08:00;102749.34;;;20.34;32.35
68399;BME280;56258;52.196;13.868;2023-02-28T05:10:27;102753.34;;;20.30;32.13
68399;BME280;56258;52.196;13.868;2023-02-28T05:12:54;102759.13;;;20.26;32.54
68399;BME280;56258;52.196;13.868;2023-02-28T05:15:20;102757.88;;;20.30;32.25
68399;BME280;56258;52.196;13.868;2023-02-28T05:17:47;102751.31;;;20.23;31.89
68399;BME280;56258;52.196;13.868;2023-02-28T05:20:14;102762.72;;;20.26;32.04
68399;BME280;56258;52.196;13.868;2023-02-28T05:22:42;102759.41;;;20.23;31.89
68399;BME280;56258;52.196;13.868;2023-02-28T05:25:13;102759.13;;;20.26;32.37
68399;BME280;56258;52.196;13.868;2023-02-28T05:27:42;102757.97;;;20.19;32.28
68399;BME280;56258;52.196;13.868;2023-02-28T05:30:09;102756.28;;;20.18;32.47
68399;BME280;56258;52.196;13.868;2023-02-28T05:32:39;102757.66;;;20.12;32.48
68399;BME280;56258;52.196;13.868;2023-02-28T05:35:10;102764.75;;;20.03;32.31
68399;BME280;56258;52.196;13.868;2023-02-28T05:37:38;102767.69;;;20.00;32.16
68399;BME280;56258;52.196;13.868;2023-02-28T05:40:06;102771.66;;;19.96;32.23
68399;BME280;56258;52.196;13.868;2023-02-28T05:42:33;102762.00;;;19.94;32.83
68399;BME280;56258;52.196;13.868;2023-02-28T05:45:00;102773.00;;;19.81;32.81
68399;BME280;56258;52.196;13.868;2023-02-28T05:47:26;102776.81;;;19.78;32.54
68399;BME280;56258;52.196;13.868;2023-02-28T05:49:53;102781.63;;;19.75;32.88
68399;BME280;56258;52.196;13.868;2023-02-28T05:52:19;102783.13;;;19.68;32.74
68399;BME280;56258;52.196;13.868;2023-02-28T05:54:47;102780.84;;;19.63;32.73
68399;BME280;56258;52.196;13.868;2023-02-28T05:57:14;102785.09;;;19.66;32.65
68399;BME280;56258;52.196;13.868;2023-02-28T05:59:50;102780.13;;;19.61;32.73
68399;BME280;56258;52.196;13.868;2023-02-28T06:02:17;102795.91;;;19.66;32.80
68399;BME280;56258;52.196;13.868;2023-02-28T06:04:44;102791.06;;;19.60;32.95
68399;BME280;56258;52.196;13.868;2023-02-28T06:07:11;102795.72;;;19.58;32.45
68399;BME280;56258;52.196;13.868;2023-02-28T06:09:38;102800.13;;;19.59;32.52
68399;BME280;56258;52.196;13.868;2023-02-28T06:12:06;102790.91;;;19.61;32.63
68399;BME280;56258;52.196;13.868;2023-02-28T06:14:33;102797.50;;;19.68;32.47
68399;BME280;56258;52.196;13.868;2023-02-28T06:17:00;102800.44;;;19.65;32.09
68399;BME280;56258;52.196;13.868;2023-02-28T06:19:27;102802.16;;;19.66;32.54
68399;BME280;56258;52.196;13.868;2023-02-28T06:21:56;102791.13;;;19.69;32.45
68399;BME280;56258;52.196;13.868;2023-02-28T06:24:25;102796.50;;;19.69;32.48
68399;BME280;56258;52.196;13.868;2023-02-28T06:26:54;102797.28;;;19.60;32.42
68399;BME280;56258;52.196;13.868;2023-02-28T06:29:21;102803.00;;;19.67;32.33
68399;BME280;56258;52.196;13.868;2023-02-28T06:31:48;102809.88;;;19.71;32.20
68399;BME280;56258;52.196;13.868;2023-02-28T06:34:16;102807.31;;;19.69;32.34
68399;BME280;56258;52.196;13.868;2023-02-28T06:36:43;102807.56;;;19.66;32.20
68399;BME280;56258;52.196;13.868;2023-02-28T06:39:09;102807.75;;;19.74;32.05
68399;BME280;56258;52.196;13.868;2023-02-28T06:41:36;102817.13;;;19.70;31.89
68399;BME280;56258;52.196;13.868;2023-02-28T06:44:19;102820.81;;;19.69;32.16
68399;BME280;56258;52.196;13.868;2023-02-28T06:46:47;102823.38;;;19.71;32.37
68399;BME280;56258;52.196;13.868;2023-02-28T06:49:14;102818.97;;;19.70;32.28
68399;BME280;56258;52.196;13.868;2023-02-28T06:51:43;102814.16;;;19.73;32.86
68399;BME280;56258;52.196;13.868;2023-02-28T06:54:13;102819.28;;;19.76;32.33
68399;BME280;56258;52.196;13.868;2023-02-28T06:56:40;102819.88;;;19.80;32.24
68399;BME280;56258;52.196;13.868;2023-02-28T06:59:06;102831.13;;;19.85;32.39
68399;BME280;56258;52.196;13.868;2023-02-28T07:01:33;102824.81;;;19.96;32.21
68399;BME280;56258;52.196;13.868;2023-02-28T07:04:00;102831.25;;;20.04;32.34
68399;BME280;56258;52.196;13.868;2023-02-28T07:06:27;102825.56;;;20.07;32.61
68399;BME280;56258;52.196;13.868;2023-02-28T07:08:54;102828.56;;;20.04;32.57
68399;BME280;56258;52.196;13.868;2023-02-28T07:11:23;102838.50;;;20.04;32.75
68399;BME280;56258;52.196;13.868;2023-02-28T07:13:55;102836.31;;;19.98;32.56
68399;BME280;56258;52.196;13.868;2023-02-28T07:16:23;102836.44;;;19.96;32.97
68399;BME280;56258;52.196;13.868;2023-02-28T07:18:54;102836.44;;;19.96;32.40
68399;BME280;56258;52.196;13.868;2023-02-28T07:21:21;102838.56;;;19.93;32.67
68399;BME280;56258;52.196;13.868;2023-02-28T07:23:47;102840.00;;;19.97;32.41
68399;BME280;56258;52.196;13.868;2023-02-28T07:26:16;102833.88;;;19.95;32.44
68399;BME280;56258;52.196;13.868;2023-02-28T07:28:45;102831.72;;;19.89;32.43
68399;BME280;56258;52.196;13.868;2023-02-28T07:31:13;102834.28;;;19.90;32.50
68399;BME280;56258;52.196;13.868;2023-02-28T07:33:40;102835.13;;;19.91;32.45
68399;BME280;56258;52.196;13.868;2023-02-28T07:36:10;102835.41;;;19.88;32.21
68399;BME280;56258;52.196;13.868;2023-02-28T07:38:43;102836.97;;;19.90;32.64
68399;BME280;56258;52.196;13.868;2023-02-28T07:41:15;102836.25;;;19.88;32.26
68399;BME280;56258;52.196;13.868;2023-02-28T07:43:42;102836.25;;;19.88;32.22
68399;BME280;56258;52.196;13.868;2023-02-28T07:46:12;102831.31;;;19.93;32.13
68399;BME280;56258;52.196;13.868;2023-02-28T07:48:39;102832.56;;;19.89;32.13
68399;BME280;56258;52.196;13.868;2023-02-28T07:51:05;102835.03;;;19.92;32.13
68399;BME280;56258;52.196;13.868;2023-02-28T07:53:32;102843.84;;;19.94;32.18
68399;BME280;56258;52.196;13.868;2023-02-28T07:56:00;102842.28;;;20.01;32.15
68399;BME280;56258;52.196;13.868;2023-02-28T07:58:29;102839.34;;;20.04;32.20
68399;BME280;56258;52.196;13.868;2023-02-28T08:00:56;102829.41;;;20.05;31.97
68399;BME280;56258;52.196;13.868;2023-02-28T08:03:24;102837.56;;;20.15;31.78
68399;BME280;56258;52.196;13.868;2023-02-28T08:05:51;102843.00;;;20.24;31.26
68399;BME280;56258;52.196;13.868;2023-02-28T08:08:18;102838.63;;;20.33;31.36
68399;BME280;56258;52.196;13.868;2023-02-28T08:10:45;102834.16;;;20.43;30.96
68399;BME280;56258;52.196;13.868;2023-02-28T08:13:12;102835.06;;;20.53;30.85
68399;BME280;56258;52.196;13.868;2023-02-28T08:15:41;102839.78;;;20.61;30.81
68399;BME280;56258;52.196;13.868;2023-02-28T08:18:09;102835.38;;;20.69;31.05
68399;BME280;56258;52.196;13.868;2023-02-28T08:20:36;102840.13;;;20.77;30.21
68399;BME280;56258;52.196;13.868;2023-02-28T08:23:02;102841.41;;;20.83;30.02
68399;BME280;56258;52.196;13.868;2023-02-28T08:25:29;102845.84;;;20.93;30.48
68399;BME280;56258;52.196;13.868;2023-02-28T08:27:56;102837.06;;;21.11;29.57
68399;BME280;56258;52.196;13.868;2023-02-28T08:30:22;102840.22;;;21.25;29.86
68399;BME280;56258;52.196;13.868;2023-02-28T08:32:49;102845.50;;;21.46;29.70
68399;BME280;56258;52.196;13.868;2023-02-28T08:35:16;102837.94;;;21.60;29.31
68399;BME280;56258;52.196;13.868;2023-02-28T08:37:42;102837.22;;;21.77;28.99
68399;BME280;56258;52.196;13.868;2023-02-28T08:40:09;102842.50;;;21.88;28.29
68399;BME280;56258;52.196;13.868;2023-02-28T08:42:37;102838.16;;;22.05;27.94
68399;BME280;56258;52.196;13.868;2023-02-28T08:45:04;102850.84;;;22.24;27.93
68399;BME280;56258;52.196;13.868;2023-02-28T08:47:31;102846.75;;;22.47;27.81
68399;BME280;56258;52.196;13.868;2023-02-28T08:49:58;102852.06;;;22.66;27.45
68399;BME280;56258;52.196;13.868;2023-02-28T08:52:24;102851.59;;;22.81;27.16
68399;BME280;56258;52.196;13.868;2023-02-28T08:54:51;102848.59;;;22.84;27.39
68399;BME280;56258;52.196;13.868;2023-02-28T08:57:17;102848.22;;;22.96;27.35
68399;BME280;56258;52.196;13.868;2023-02-28T08:59:44;102843.25;;;22.92;26.64
68399;BME280;56258;52.196;13.868;2023-02-28T09:02:14;102849.63;;;23.00;26.84
68399;BME280;56258;52.196;13.868;2023-02-28T09:04:41;102842.19;;;23.20;26.55
68399;BME280;56258;52.196;13.868;2023-02-28T09:07:08;102841.34;;;23.38;26.48
68399;BME280;56258;52.196;13.868;2023-02-28T09:09:34;102841.66;;;23.35;26.30
68399;BME280;56258;52.196;13.868;2023-02-28T09:12:01;102833.66;;;23.15;26.81
68399;BME280;56258;52.196;13.868;2023-02-28T09:14:28;102843.72;;;22.78;26.69
68399;BME280;56258;52.196;13.868;2023-02-28T09:16:55;102832.84;;;22.23;27.79
68399;BME280;56258;52.196;13.868;2023-02-28T09:19:21;102829.75;;;21.98;28.02
68399;BME280;56258;52.196;13.868;2023-02-28T09:21:48;102832.47;;;22.08;28.15
68399;BME280;56258;52.196;13.868;2023-02-28T09:24:15;102837.38;;;22.32;28.05
68399;BME280;56258;52.196;13.868;2023-02-28T09:26:42;102832.00;;;22.22;27.57
68399;BME280;56258;52.196;13.868;2023-02-28T09:29:28;102846.31;;;21.95;28.49
68399;BME280;56258;52.196;13.868;2023-02-28T09:31:55;102846.31;;;21.76;28.32
68399;BME280;56258;52.196;13.868;2023-02-28T09:34:26;102839.72;;;22.17;27.63
68399;BME280;56258;52.196;13.868;2023-02-28T09:36:53;102853.38;;;22.35;27.64
68399;BME280;56258;52.196;13.868;2023-02-28T09:39:22;102847.22;;;22.33;27.53
68399;BME280;56258;52.196;13.868;2023-02-28T09:41:51;102845.34;;;21.77;28.60
68399;BME280;56258;52.196;13.868;2023-02-28T09:44:36;102832.94;;;21.65;28.67
68399;BME280;56258;52.196;13.868;2023-02-28T09:47:18;102837.16;;;22.53;27.21
68399;BME280;56258;52.196;13.868;2023-02-28T09:49:50;102847.41;;;23.67;25.66
68399;BME280;56258;52.196;13.868;2023-02-28T09:52:20;102836.00;;;24.76;24.43
68399;BME280;56258;52.196;13.868;2023-02-28T09:54:47;102845.38;;;25.48;23.50
68399;BME280;56258;52.196;13.868;2023-02-28T10:03:02;102841.75;;;26.99;21.12
68399;BME280;56258;52.196;13.868;2023-02-28T10:05:35;102842.09;;;27.27;21.26
68399;BME280;56258;52.196;13.868;2023-02-28T10:08:16;102840.22;;;27.50;20.70
68399;BME280;56258;52.196;13.868;2023-02-28T10:10:47;102839.09;;;27.82;20.39
68399;BME280;56258;52.196;13.868;2023-02-28T10:16:06;102830.00;;;28.34;19.69
68399;BME280;56258;52.196;13.868;2023-02-28T10:18:59;102828.28;;;28.63;19.64
68399;BME280;56258;52.196;13.868;2023-02-28T10:21:34;102840.38;;;29.04;19.12
68399;BME280;56258;52.196;13.868;2023-02-28T10:24:51;102837.66;;;29.26;18.72
68399;BME280;56258;52.196;13.868;2023-02-28T10:26:52;102839.53;;;29.25;18.63
68399;BME280;56258;52.196;13.868;2023-02-28T10:29:23;102835.41;;;28.93;18.84
68399;BME280;56258;52.196;13.868;2023-02-28T10:31:49;102831.72;;;28.86;19.19
68399;BME280;56258;52.196;13.868;2023-02-28T10:34:16;102825.25;;;28.72;19.48
68399;BME280;56258;52.196;13.868;2023-02-28T10:36:44;102831.13;;;28.55;19.49
68399;BME280;56258;52.196;13.868;2023-02-28T10:39:42;102828.69;;;28.45;19.79
68399;BME280;56258;52.196;13.868;2023-02-28T10:42:23;102833.06;;;27.49;20.52
68399;BME280;56258;52.196;13.868;2023-02-28T10:45:15;102826.97;;;25.66;22.76
68399;BME280;56258;52.196;13.868;2023-02-28T10:48:01;102830.91;;;24.38;24.72
68399;BME280;56258;52.196;13.868;2023-02-28T10:50:51;102829.66;;;23.19;26.31
68399;BME280;56258;52.196;13.868;2023-02-28T10:56:16;102827.50;;;22.68;27.18
68399;BME280;56258;52.196;13.868;2023-02-28T11:01:39;102819.00;;;22.35;28.04
68399;BME280;56258;52.196;13.868;2023-02-28T11:06:58;102813.25;;;22.38;27.30
68399;BME280;56258;52.196;13.868;2023-02-28T11:09:33;102816.91;;;22.20;28.00
68399;BME280;56258;52.196;13.868;2023-02-28T11:12:03;102819.25;;;21.76;28.71
68399;BME280;56258;52.196;13.868;2023-02-28T11:14:35;102814.44;;;21.50;28.61
68399;BME280;56258;52.196;13.868;2023-02-28T11:17:24;102801.31;;;21.17;29.27
68399;BME280;56258;52.196;13.868;2023-02-28T11:19:53;102801.19;;;20.99;29.80
68399;BME280;56258;52.196;13.868;2023-02-28T11:22:24;102815.81;;;20.87;29.71
68399;BME280;56258;52.196;13.868;2023-02-28T11:25:01;102799.28;;;20.80;29.55
68399;BME280;56258;52.196;13.868;2023-02-28T11:29:58;102796.16;;;20.94;29.38
68399;BME280;56258;52.196;13.868;2023-02-28T11:32:27;102792.88;;;20.81;30.03
68399;BME280;56258;52.196;13.868;2023-02-28T11:37:39;102785.88;;;20.69;30.23
68399;BME280;56258;52.196;13.868;2023-02-28T11:40:13;102788.97;;;20.55;29.87
68399;BME280;56258;52.196;13.868;2023-02-28T11:42:53;102798.09;;;20.54;30.54
68399;BME280;56258;52.196;13.868;2023-02-28T11:48:32;102798.50;;;20.49;30.60
68399;BME280;56258;52.196;13.868;2023-02-28T11:51:14;102801.28;;;20.78;30.02
68399;BME280;56258;52.196;13.868;2023-02-28T12:02:15;102786.91;;;20.37;30.49
68399;BME280;56258;52.196;13.868;2023-02-28T12:08:05;102784.00;;;20.20;30.73
68399;BME280;56258;52.196;13.868;2023-02-28T12:10:44;102788.69;;;20.58;30.15
68399;BME280;56258;52.196;13.868;2023-02-28T12:13:37;102793.19;;;20.88;29.77
68399;BME280;56258;52.196;13.868;2023-02-28T12:19:11;102782.16;;;20.51;30.02
68399;BME280;56258;52.196;13.868;2023-02-28T12:27:12;102763.47;;;20.38;30.85
68399;BME280;56258;52.196;13.868;2023-02-28T12:29:53;102759.75;;;20.98;29.97
68399;BME280;56258;52.196;13.868;2023-02-28T12:32:30;102765.06;;;23.05;26.50
68399;BME280;56258;52.196;13.868;2023-02-28T12:35:04;102764.69;;;23.18;26.36
68399;BME280;56258;52.196;13.868;2023-02-28T12:37:41;102756.25;;;24.67;24.34
68399;BME280;56258;52.196;13.868;2023-02-28T12:40:13;102760.44;;;25.36;23.57
68399;BME280;56258;52.196;13.868;2023-02-28T12:42:47;102750.38;;;25.20;23.94
68399;BME280;56258;52.196;13.868;2023-02-28T12:45:24;102750.00;;;24.91;24.22
68399;BME280;56258;52.196;13.868;2023-02-28T12:48:00;102742.53;;;24.93;24.26
68399;BME280;56258;52.196;13.868;2023-02-28T12:50:29;102737.94;;;24.93;23.92
68399;BME280;56258;52.196;13.868;2023-02-28T12:53:06;102738.66;;;25.20;24.01
68399;BME280;56258;52.196;13.868;2023-02-28T12:55:43;102735.94;;;25.28;23.90
68399;BME280;56258;52.196;13.868;2023-02-28T13:00:55;102726.41;;;25.08;24.07
68399;BME280;56258;52.196;13.868;2023-02-28T13:06:27;102721.06;;;24.73;24.89
68399;BME280;56258;52.196;13.868;2023-02-28T13:09:03;102708.13;;;24.59;24.95
68399;BME280;56258;52.196;13.868;2023-02-28T13:11:38;102706.22;;;24.52;25.28
68399;BME280;56258;52.196;13.868;2023-02-28T13:14:30;102704.88;;;24.48;25.33
68399;BME280;56258;52.196;13.868;2023-02-28T13:22:37;102702.38;;;24.20;25.63
68399;BME280;56258;52.196;13.868;2023-02-28T13:27:51;102692.50;;;24.11;25.70
68399;BME280;56258;52.196;13.868;2023-02-28T13:33:36;102695.84;;;24.05;26.23
68399;BME280;56258;52.196;13.868;2023-02-28T13:36:25;102699.59;;;24.04;25.91
68399;BME280;56258;52.196;13.868;2023-02-28T13:39:01;102694.53;;;24.09;25.79
68399;BME280;56258;52.196;13.868;2023-02-28T13:49:33;102692.63;;;24.01;26.10
68399;BME280;56258;52.196;13.868;2023-02-28T14:05:34;102673.66;;;24.09;26.17
68399;BME280;56258;52.196;13.868;2023-02-28T14:08:20;102676.38;;;24.09;25.88
68399;BME280;56258;52.196;13.868;2023-02-28T14:11:02;102672.81;;;24.17;25.98
68399;BME280;56258;52.196;13.868;2023-02-28T14:16:17;102678.91;;;24.19;25.99
68399;BME280;56258;52.196;13.868;2023-02-28T14:19:25;102674.50;;;24.10;26.14
68399;BME280;56258;52.196;13.868;2023-02-28T14:31:07;102675.47;;;24.01;26.09
68399;BME280;56258;52.196;13.868;2023-02-28T14:34:01;102674.97;;;23.97;26.31
68399;BME280;56258;52.196;13.868;2023-02-28T14:36:37;102668.13;;;23.93;26.38
68399;BME280;56258;52.196;13.868;2023-02-28T14:39:10;102669.84;;;23.94;26.42
68399;BME280;56258;52.196;13.868;2023-02-28T14:41:40;102669.16;;;23.92;26.57
68399;BME280;56258;52.196;13.868;2023-02-28T14:46:48;102666.94;;;23.88;26.24
68399;BME280;56258;52.196;13.868;2023-02-28T14:49:34;102668.25;;;23.83;26.45
68399;BME280;56258;52.196;13.868;2023-02-28T14:52:27;102664.50;;;23.76;26.28
68399;BME280;56258;52.196;13.868;2023-02-28T14:54:56;102661.78;;;23.76;26.33
68399;BME280;56258;52.196;13.868;2023-02-28T14:57:35;102669.56;;;23.71;26.63
68399;BME280;56258;52.196;13.868;2023-02-28T15:00:11;102664.44;;;23.68;26.65
68399;BME280;56258;52.196;13.868;2023-02-28T15:02:41;102668.50;;;23.64;26.54
68399;BME280;56258;52.196;13.868;2023-02-28T15:07:44;102671.88;;;23.58;27.03
68399;BME280;56258;52.196;13.868;2023-02-28T15:10:24;102672.66;;;23.50;26.92
68399;BME280;56258;52.196;13.868;2023-02-28T15:15:49;102662.44;;;23.18;27.11
68399;BME280;56258;52.196;13.868;2023-02-28T15:21:17;102657.94;;;23.09;27.43
68399;BME280;56258;52.196;13.868;2023-02-28T15:23:54;102654.78;;;22.96;27.18
68399;BME280;56258;52.196;13.868;2023-02-28T15:26:26;102647.59;;;22.87;27.78
68399;BME280;56258;52.196;13.868;2023-02-28T15:28:59;102652.84;;;22.70;27.77
68399;BME280;56258;52.196;13.868;2023-02-28T15:31:34;102654.38;;;22.55;28.00
68399;BME280;56258;52.196;13.868;2023-02-28T15:34:42;102648.41;;;22.34;28.55
68399;BME280;56258;52.196;13.868;2023-02-28T15:40:10;102640.13;;;21.80;29.09
68399;BME280;56258;52.196;13.868;2023-02-28T15:42:38;102639.34;;;21.61;29.51
68399;BME280;56258;52.196;13.868;2023-02-28T15:45:05;102637.44;;;21.43;29.83
68399;BME280;56258;52.196;13.868;2023-02-28T15:47:32;102635.63;;;21.34;29.56
68399;BME280;56258;52.196;13.868;2023-02-28T15:50:01;102643.88;;;21.23;30.11
68399;BME280;56258;52.196;13.868;2023-02-28T15:52:39;102647.31;;;21.06;30.19
68399;BME280;56258;52.196;13.868;2023-02-28T15:55:12;102646.19;;;20.98;30.78
68399;BME280;56258;52.196;13.868;2023-02-28T15:57:45;102643.09;;;20.84;30.25
68399;BME280;56258;52.196;13.868;2023-02-28T16:00:18;102647.19;;;20.68;30.58
68399;BME280;56258;52.196;13.868;2023-02-28T16:02:45;102646.19;;;20.69;30.42
68399;BME280;56258;52.196;13.868;2023-02-28T16:05:20;102643.22;;;20.73;30.81
68399;BME280;56258;52.196;13.868;2023-02-28T16:07:55;102640.66;;;20.81;30.35
68399;BME280;56258;52.196;13.868;2023-02-28T16:10:23;102638.53;;;20.84;30.51
68399;BME280;56258;52.196;13.868;2023-02-28T16:12:56;102641.78;;;20.78;30.15
68399;BME280;56258;52.196;13.868;2023-02-28T16:15:29;102646.91;;;20.81;30.23
68399;BME280;56258;52.196;13.868;2023-02-28T16:17:57;102654.59;;;20.86;30.33
68399;BME280;56258;52.196;13.868;2023-02-28T16:20:27;102654.00;;;20.92;30.30
68399;BME280;56258;52.196;13.868;2023-02-28T16:22:54;102662.81;;;20.94;30.24
68399;BME280;56258;52.196;13.868;2023-02-28T16:25:25;102661.13;;;20.93;30.24
68399;BME280;56258;52.196;13.868;2023-02-28T16:27:54;102670.53;;;20.89;30.67
68399;BME280;56258;52.196;13.868;2023-02-28T16:30:23;102669.81;;;20.87;30.76
68399;BME280;56258;52.196;13.868;2023-02-28T16:32:52;102671.53;;;20.78;30.62
68399;BME280;56258;52.196;13.868;2023-02-28T16:35:19;102662.13;;;20.82;30.37
68399;BME280;56258;52.196;13.868;2023-02-28T16:37:46;102660.56;;;20.70;30.62
68399;BME280;56258;52.196;13.868;2023-02-28T16:40:18;102673.38;;;20.68;30.86
68399;BME280;56258;52.196;13.868;2023-02-28T16:42:49;102665.84;;;20.62;30.75
68399;BME280;56258;52.196;13.868;2023-02-28T16:45:19;102660.44;;;20.52;31.14
68399;BME280;56258;52.196;13.868;2023-02-28T16:47:47;102668.94;;;20.48;31.06
68399;BME280;56258;52.196;13.868;2023-02-28T16:50:19;102665.81;;;20.43;31.28
68399;BME280;56258;52.196;13.868;2023-02-28T16:52:47;102670.75;;;20.37;30.98
68399;BME280;56258;52.196;13.868;2023-02-28T16:55:14;102669.44;;;20.32;31.18
68399;BME280;56258;52.196;13.868;2023-02-28T16:57:42;102667.00;;;20.19;31.21
68399;BME280;56258;52.196;13.868;2023-02-28T17:00:12;102660.91;;;20.17;31.49
68399;BME280;56258;52.196;13.868;2023-02-28T17:02:39;102662.75;;;20.17;31.38
68399;BME280;56258;52.196;13.868;2023-02-28T17:05:12;102663.44;;;20.09;31.32
68399;BME280;56258;52.196;13.868;2023-02-28T17:07:39;102664.41;;;20.08;31.22
68399;BME280;56258;52.196;13.868;2023-02-28T17:12:40;102671.94;;;20.04;31.47
68399;BME280;56258;52.196;13.868;2023-02-28T17:15:07;102669.97;;;20.06;31.19
68399;BME280;56258;52.196;13.868;2023-02-28T17:17:34;102672.94;;;20.03;31.15
68399;BME280;56258;52.196;13.868;2023-02-28T17:20:02;102675.50;;;20.05;31.64
68399;BME280;56258;52.196;13.868;2023-02-28T17:22:29;102670.34;;;20.02;31.49
68399;BME280;56258;52.196;13.868;2023-02-28T17:24:55;102681.91;;;20.04;31.34
68399;BME280;56258;52.196;13.868;2023-02-28T17:27:22;102672.94;;;20.03;31.08
68399;BME280;56258;52.196;13.868;2023-02-28T17:29:49;102669.81;;;20.08;30.95
68399;BME280;56258;52.196;13.868;2023-02-28T17:32:15;102675.94;;;20.10;31.64
68399;BME280;56258;52.196;13.868;2023-02-28T17:34:44;102677.34;;;20.14;31.36
68399;BME280;56258;52.196;13.868;2023-02-28T17:37:12;102672.53;;;20.08;31.68
68399;BME280;56258;52.196;13.868;2023-02-28T17:39:39;102683.19;;;20.09;31.40
68399;BME280;56258;52.196;13.868;2023-02-28T17:42:05;102681.06;;;20.13;30.87
68399;BME280;56258;52.196;13.868;2023-02-28T17:44:32;102686.03;;;20.08;31.06
68399;BME280;56258;52.196;13.868;2023-02-28T17:46:59;102679.91;;;20.06;31.51
68399;BME280;56258;52.196;13.868;2023-02-28T17:49:26;102681.75;;;20.05;31.39
68399;BME280;56258;52.196;13.868;2023-02-28T17:51:53;102686.03;;;20.08;31.31
68399;BME280;56258;52.196;13.868;2023-02-28T17:54:20;102692.69;;;20.04;30.96
68399;BME280;56258;52.196;13.868;2023-02-28T17:56:46;102690.72;;;20.06;31.38
68399;BME280;56258;52.196;13.868;2023-02-28T17:59:13;102690.72;;;20.06;31.40
68399;BME280;56258;52.196;13.868;2023-02-28T18:01:39;102688.16;;;20.04;31.54
68399;BME280;56258;52.196;13.868;2023-02-28T18:04:06;102687.56;;;20.01;31.22
68399;BME280;56258;52.196;13.868;2023-02-28T18:06:43;102696.25;;;20.04;31.22
68399;BME280;56258;52.196;13.868;2023-02-28T18:09:15;102686.84;;;19.99;31.03
68399;BME280;56258;52.196;13.868;2023-02-28T18:11:42;102679.44;;;20.01;31.59
68399;BME280;56258;52.196;13.868;2023-02-28T18:14:12;102684.41;;;19.96;31.55
68399;BME280;56258;52.196;13.868;2023-02-28T18:16:38;102690.09;;;19.93;31.44
68399;BME280;56258;52.196;13.868;2023-02-28T18:19:05;102690.09;;;19.93;31.70
68399;BME280;56258;52.196;13.868;2023-02-28T18:21:33;102689.81;;;19.96;32.01
68399;BME280;56258;52.196;13.868;2023-02-28T18:24:00;102684.56;;;19.94;32.12
68399;BME280;56258;52.196;13.868;2023-02-28T18:26:27;102690.09;;;19.93;31.63
68399;BME280;56258;52.196;13.868;2023-02-28T18:28:54;102684.94;;;19.90;32.01
68399;BME280;56258;52.196;13.868;2023-02-28T18:31:21;102689.50;;;19.89;31.66
68399;BME280;56258;52.196;13.868;2023-02-28T18:33:49;102690.06;;;19.83;31.58
68399;BME280;56258;52.196;13.868;2023-02-28T18:36:18;102687.22;;;19.85;31.84
68399;BME280;56258;52.196;13.868;2023-02-28T18:38:45;102691.09;;;19.92;31.63
68399;BME280;56258;52.196;13.868;2023-02-28T18:41:12;102690.63;;;19.87;32.03
68399;BME280;56258;52.196;13.868;2023-02-28T18:43:39;102689.78;;;19.86;31.95
68399;BME280;56258;52.196;13.868;2023-02-28T18:46:08;102692.34;;;19.88;31.64
68399;BME280;56258;52.196;13.868;2023-02-28T18:48:35;102691.81;;;19.94;31.80